createdAt,value
2019-05-06T00:00:19.180Z,11.70
2019-05-06T00:02:47.510Z,10.37
2019-05-06T00:05:15.843Z,6.87
2019-05-06T00:07:45.752Z,9.07
2019-05-06T00:10:44.807Z,10.93
2019-05-06T00:13:14.003Z,9.40
2019-05-06T00:15:43.679Z,9.70
2019-05-06T00:18:13.830Z,10.07
2019-05-06T00:20:43.834Z,8.50
2019-05-06T00:23:16.403Z,10.43
2019-05-06T00:25:59.776Z,11.97
2019-05-06T00:28:29.755Z,7.80
2019-05-06T00:31:10.430Z,9.70
2019-05-06T00:33:34.095Z,8.07
2019-05-06T00:36:04.536Z,7.33
2019-05-06T00:38:34.085Z,10.03
2019-05-06T00:41:07.022Z,9.67
2019-05-06T00:43:35.275Z,7.73
2019-05-06T00:46:04.733Z,11.97
2019-05-06T00:48:34.166Z,7.57
2019-05-06T00:51:04.488Z,12.50
2019-05-06T00:53:34.841Z,8.27
2019-05-06T00:56:04.540Z,8.40
2019-05-06T00:58:34.826Z,6.53
2019-05-06T01:01:04.631Z,7.53
2019-05-06T01:03:34.769Z,10.17
2019-05-06T01:06:04.738Z,10.67
2019-05-06T01:08:34.874Z,8.37
2019-05-06T01:11:04.566Z,9.83
2019-05-06T01:13:35.116Z,6.40
2019-05-06T01:16:04.236Z,10.57
2019-05-06T01:18:34.082Z,8.73
2019-05-06T01:21:11.250Z,11.93
2019-05-06T01:23:44.009Z,10.73
2019-05-06T01:26:15.029Z,7.73
2019-05-06T01:28:43.907Z,9.83
2019-05-06T01:31:13.974Z,7.20
2019-05-06T01:33:42.383Z,8.37
2019-05-06T01:36:10.634Z,9.53
2019-05-06T01:38:44.301Z,8.17
2019-05-06T01:41:30.656Z,7.90
2019-05-06T01:43:59.044Z,10.33
2019-05-06T01:46:27.311Z,8.60
2019-05-06T01:48:55.594Z,7.80
2019-05-06T01:51:24.279Z,7.63
2019-05-06T01:53:54.384Z,7.73
2019-05-06T01:56:24.130Z,8.50
2019-05-06T01:58:53.592Z,8.27
2019-05-06T02:01:22.099Z,7.90
2019-05-06T02:03:50.399Z,7.20
2019-05-06T02:06:18.680Z,6.90
2019-05-06T02:08:46.925Z,7.83
2019-05-06T02:11:15.202Z,8.57
2019-05-06T02:13:44.285Z,6.40
2019-05-06T02:16:14.616Z,8.60
2019-05-06T02:18:44.892Z,6.23
2019-05-06T02:21:29.845Z,9.30
2019-05-06T02:26:49.483Z,7.50
2019-05-06T02:29:19.400Z,7.87
2019-05-06T02:31:56.651Z,7.73
2019-05-06T02:34:45.823Z,7.73
2019-05-06T02:37:18.398Z,7.20
2019-05-06T02:39:47.659Z,7.57
2019-05-06T02:42:15.928Z,7.30
2019-05-06T02:44:44.477Z,8.93
2019-05-06T02:47:34.266Z,8.00
2019-05-06T02:50:13.529Z,9.90
2019-05-06T02:52:44.068Z,9.03
2019-05-06T02:55:12.978Z,12.63
2019-05-06T02:57:43.882Z,7.17
2019-05-06T03:00:18.555Z,7.63
2019-05-06T03:02:48.113Z,6.67
2019-05-06T03:05:17.749Z,6.50
2019-05-06T03:07:46.040Z,9.40
2019-05-06T03:10:17.051Z,10.20
2019-05-06T03:12:45.306Z,7.40
2019-05-06T03:15:16.603Z,7.80
2019-05-06T03:17:43.828Z,8.97
2019-05-06T03:20:19.622Z,7.33
2019-05-06T03:22:54.439Z,6.90
2019-05-06T03:25:24.198Z,13.23
2019-05-06T03:27:53.210Z,9.60
2019-05-06T03:30:25.370Z,9.77
2019-05-06T03:33:28.120Z,8.73
2019-05-06T03:35:36.201Z,10.53
2019-05-06T03:37:53.264Z,10.50
2019-05-06T03:40:23.094Z,11.63
2019-05-06T03:42:53.906Z,9.90
2019-05-06T03:45:23.768Z,9.37
2019-05-06T03:47:59.851Z,9.53
2019-05-06T03:50:28.092Z,9.30
2019-05-06T03:52:56.701Z,9.43
2019-05-06T03:55:25.729Z,12.10
2019-05-06T03:57:56.712Z,9.80
2019-05-06T04:00:25.113Z,10.70
2019-05-06T04:02:53.791Z,10.63
2019-05-06T04:05:23.849Z,11.53
2019-05-06T04:07:53.731Z,10.57
2019-05-06T04:10:22.876Z,11.60
2019-05-06T04:12:53.488Z,9.10
2019-05-06T04:15:22.975Z,10.20
2019-05-06T04:17:54.332Z,9.53
2019-05-06T04:20:43.393Z,12.47
2019-05-06T04:23:23.446Z,11.37
2019-05-06T04:25:56.137Z,15.10
2019-05-06T04:28:28.669Z,19.10
2019-05-06T04:30:57.356Z,15.67
2019-05-06T04:33:26.463Z,27.83
2019-05-06T04:35:54.819Z,22.33
2019-05-06T04:38:24.221Z,22.07
2019-05-06T04:40:53.855Z,14.90
2019-05-06T04:43:26.950Z,17.83
2019-05-06T04:45:54.300Z,19.00
2019-05-06T04:48:23.894Z,15.63
2019-05-06T04:50:53.678Z,12.03
2019-05-06T04:53:23.805Z,15.87
2019-05-06T04:55:53.899Z,12.50
2019-05-06T04:58:23.405Z,18.47
2019-05-06T05:00:53.084Z,16.27
2019-05-06T05:03:23.146Z,19.37
2019-05-06T05:05:52.940Z,18.30
2019-05-06T05:08:23.412Z,13.23
2019-05-06T05:10:58.744Z,14.50
2019-05-06T05:13:37.893Z,15.77
2019-05-06T05:16:12.704Z,11.83
2019-05-06T05:18:42.521Z,10.90
2019-05-06T05:21:11.906Z,14.37
2019-05-06T05:26:35.724Z,17.23
2019-05-06T05:29:04.037Z,13.93
2019-05-06T05:31:33.234Z,14.87
2019-05-06T05:34:02.190Z,12.70
2019-05-06T05:36:32.598Z,11.57
2019-05-06T05:39:03.354Z,12.73
2019-05-06T05:41:33.127Z,11.93
2019-05-06T05:44:06.438Z,13.37
2019-05-06T05:46:35.743Z,11.33
2019-05-06T05:49:05.630Z,11.03
2019-05-06T05:51:34.008Z,11.83
2019-05-06T05:54:02.405Z,12.90
2019-05-06T05:56:33.021Z,13.53
2019-05-06T05:59:03.039Z,12.90
2019-05-06T06:01:32.631Z,12.30
2019-05-06T06:04:03.179Z,12.40
2019-05-06T06:06:33.176Z,12.20
2019-05-06T06:09:03.156Z,12.33
2019-05-06T06:11:47.994Z,14.03
2019-05-06T06:14:29.760Z,12.97
2019-05-06T06:17:08.231Z,11.50
2019-05-06T06:19:42.541Z,11.63
2019-05-06T06:22:18.117Z,14.50
2019-05-06T06:24:47.132Z,11.20
2019-05-06T06:27:15.390Z,12.80
2019-05-06T06:29:45.365Z,11.20
2019-05-06T06:32:18.020Z,13.03
2019-05-06T06:34:52.116Z,13.10
2019-05-06T06:37:29.106Z,14.87
2019-05-06T06:40:02.526Z,13.30
2019-05-06T06:42:33.365Z,11.73
2019-05-06T06:45:03.288Z,12.00
2019-05-06T06:47:32.019Z,10.93
2019-05-06T06:50:02.615Z,20.10
2019-05-06T06:52:32.526Z,11.13
2019-05-06T06:55:02.386Z,12.67
2019-05-06T06:57:47.118Z,16.83
2019-05-06T07:00:33.690Z,10.63
2019-05-06T07:03:12.256Z,13.70
2019-05-06T07:05:45.450Z,11.27
2019-05-06T07:08:14.979Z,12.43
2019-05-06T07:10:43.543Z,14.27
2019-05-06T07:13:14.109Z,10.87
2019-05-06T07:15:42.747Z,13.30
2019-05-06T07:18:13.504Z,12.97
2019-05-06T07:20:52.567Z,9.70
2019-05-06T07:23:24.585Z,11.60
2019-05-06T07:25:53.974Z,10.53
2019-05-06T07:28:23.385Z,10.23
2019-05-06T07:30:53.129Z,10.27
2019-05-06T07:33:22.907Z,13.90
2019-05-06T07:35:52.983Z,10.80
2019-05-06T07:38:23.063Z,11.00
2019-05-06T07:40:53.406Z,10.50
2019-05-06T07:43:38.570Z,10.90
2019-05-06T07:46:12.186Z,8.13
2019-05-06T07:48:42.771Z,7.93
2019-05-06T07:51:12.455Z,13.50
2019-05-06T07:53:42.672Z,9.43
2019-05-06T07:56:12.616Z,9.67
2019-05-06T07:58:43.385Z,11.17
2019-05-06T08:01:13.557Z,9.67
2019-05-06T08:03:42.769Z,12.50
2019-05-06T08:06:13.195Z,9.80
2019-05-06T08:08:43.330Z,13.10
2019-05-06T08:11:12.378Z,12.23
2019-05-06T08:13:43.180Z,9.73
2019-05-06T08:16:13.127Z,11.50
2019-05-06T08:18:42.698Z,8.20
2019-05-06T08:21:15.235Z,7.20
2019-05-06T08:23:48.035Z,8.53
2019-05-06T08:26:17.860Z,9.07
2019-05-06T08:28:46.347Z,7.50
2019-05-06T08:31:16.377Z,9.60
2019-05-06T08:33:45.333Z,12.07
2019-05-06T08:36:15.345Z,6.03
2019-05-06T08:38:54.014Z,6.20
2019-05-06T08:41:22.796Z,9.77
2019-05-06T08:43:52.828Z,9.50
2019-05-06T08:46:23.466Z,7.80
2019-05-06T08:48:52.581Z,7.10
2019-05-06T08:51:28.592Z,7.03
2019-05-06T08:54:03.077Z,7.27
2019-05-06T08:56:32.096Z,6.77
2019-05-06T08:59:00.557Z,7.30
2019-05-06T09:01:32.556Z,5.97
2019-05-06T09:04:11.864Z,5.83
2019-05-06T09:06:34.212Z,6.07
2019-05-06T09:09:02.430Z,8.00
2019-05-06T09:11:32.204Z,5.60
2019-05-06T09:14:03.145Z,9.87
2019-05-06T09:16:32.936Z,8.50
2019-05-06T09:19:04.266Z,6.60
2019-05-06T09:21:33.536Z,8.63
2019-05-06T09:24:02.396Z,6.17
2019-05-06T09:26:32.521Z,6.10
2019-05-06T09:29:17.809Z,10.57
2019-05-06T09:31:47.708Z,4.90
2019-05-06T09:34:23.533Z,4.67
2019-05-06T09:37:09.655Z,4.77
2019-05-06T09:39:37.952Z,8.00
2019-05-06T09:42:06.339Z,8.77
2019-05-06T09:44:34.716Z,4.90
2019-05-06T09:47:03.318Z,6.07
2019-05-06T09:49:34.180Z,5.83
2019-05-06T09:52:02.650Z,5.43
2019-05-06T09:54:35.387Z,6.80
2019-05-06T09:57:08.115Z,4.40
2019-05-06T09:59:36.375Z,6.63
2019-05-06T10:02:05.223Z,8.20
2019-05-06T10:04:33.592Z,3.57
2019-05-06T10:07:02.682Z,5.77
2019-05-06T10:09:32.612Z,5.30
2019-05-06T10:12:02.087Z,9.20
2019-05-06T10:14:32.189Z,3.90
2019-05-06T10:17:04.308Z,6.20
2019-05-06T10:19:32.121Z,7.00
2019-05-06T10:22:00.531Z,7.60
2019-05-06T10:24:28.799Z,5.73
2019-05-06T10:26:58.843Z,8.00
2019-05-06T10:29:32.589Z,8.00
2019-05-06T10:32:05.365Z,4.97
2019-05-06T10:34:33.643Z,5.67
2019-05-06T10:37:24.614Z,5.20
2019-05-06T10:40:40.329Z,5.50
2019-05-06T10:43:18.297Z,6.40
2019-05-06T10:45:46.662Z,7.10
2019-05-06T10:48:15.960Z,5.47
2019-05-06T10:50:45.969Z,6.83
2019-05-06T10:53:23.358Z,6.00
2019-05-06T10:55:53.893Z,5.53
2019-05-06T10:58:22.716Z,9.50
2019-05-06T11:00:53.172Z,5.40
2019-05-06T11:03:23.039Z,5.23
2019-05-06T11:05:53.520Z,6.73
2019-05-06T11:08:22.193Z,6.90
2019-05-06T11:10:53.488Z,5.07
2019-05-06T11:13:24.189Z,5.20
2019-05-06T11:15:52.808Z,7.87
2019-05-06T11:18:23.356Z,8.63
2019-05-06T11:20:53.042Z,8.00
2019-05-06T11:23:21.961Z,7.90
2019-05-06T11:25:52.396Z,5.43
2019-05-06T11:28:38.369Z,6.20
2019-05-06T11:31:24.370Z,7.70
2019-05-06T11:34:12.635Z,5.60
2019-05-06T11:36:52.421Z,5.90
2019-05-06T11:39:23.320Z,6.77
2019-05-06T11:42:08.067Z,4.40
2019-05-06T11:44:23.610Z,5.00
2019-05-06T11:46:52.299Z,5.77
2019-05-06T11:49:23.061Z,5.40
2019-05-06T11:51:50.792Z,4.70
2019-05-06T11:54:20.815Z,4.40
2019-05-06T11:56:54.331Z,4.80
2019-05-06T11:59:22.608Z,5.40
2019-05-06T12:01:53.955Z,4.20
2019-05-06T12:04:23.011Z,3.97
2019-05-06T12:06:54.068Z,4.37
2019-05-06T12:09:22.281Z,5.73
2019-05-06T12:11:52.846Z,5.00
2019-05-06T12:14:22.702Z,4.33
2019-05-06T12:16:55.086Z,5.37
2019-05-06T12:19:22.685Z,2.80
2019-05-06T12:21:51.030Z,4.40
2019-05-06T12:24:19.306Z,3.90
2019-05-06T12:26:47.572Z,2.70
2019-05-06T12:29:15.845Z,5.23
2019-05-06T12:31:45.400Z,4.00
2019-05-06T12:34:14.684Z,2.80
2019-05-06T12:36:43.114Z,3.57
2019-05-06T12:39:17.409Z,3.73
2019-05-06T12:41:50.034Z,7.50
2019-05-06T12:44:18.379Z,3.00
2019-05-06T12:46:53.014Z,3.90
2019-05-06T12:49:21.059Z,3.60
2019-05-06T12:51:49.362Z,3.77
2019-05-06T12:54:17.772Z,4.93
2019-05-06T12:56:48.536Z,3.60
2019-05-06T12:59:16.820Z,2.93
2019-05-06T13:01:45.928Z,3.77
2019-05-06T13:04:16.098Z,3.83
2019-05-06T13:06:46.118Z,4.27
2019-05-06T13:09:14.490Z,4.63
2019-05-06T13:11:43.291Z,3.83
2019-05-06T13:14:12.680Z,4.10
2019-05-06T13:16:42.508Z,4.10
2019-05-06T13:19:12.138Z,6.40
2019-05-06T13:21:42.323Z,5.20
2019-05-06T13:24:12.190Z,3.90
2019-05-06T13:26:43.108Z,5.47
2019-05-06T13:29:16.190Z,6.40
2019-05-06T13:31:44.505Z,6.00
2019-05-06T13:34:14.639Z,5.17
2019-05-06T13:36:43.195Z,5.43
2019-05-06T13:39:14.873Z,5.80
2019-05-06T13:41:42.738Z,4.93
2019-05-06T13:44:14.970Z,6.87
2019-05-06T13:46:44.940Z,3.97
2019-05-06T13:49:31.091Z,4.27
2019-05-06T13:52:07.155Z,5.03
2019-05-06T13:54:43.788Z,4.47
2019-05-06T13:57:24.089Z,4.00
2019-05-06T13:59:54.158Z,7.43
2019-05-06T14:02:27.012Z,4.53
2019-05-06T14:04:55.550Z,5.80
2019-05-06T14:07:24.556Z,4.10
2019-05-06T14:09:53.411Z,4.50
2019-05-06T14:12:23.268Z,3.50
2019-05-06T14:14:52.692Z,4.17
2019-05-06T14:17:22.358Z,4.43
2019-05-06T14:19:53.150Z,3.73
2019-05-06T14:22:23.340Z,4.10
2019-05-06T14:27:43.574Z,5.03
2019-05-06T14:30:32.152Z,3.83
2019-05-06T14:33:00.125Z,3.87
2019-05-06T14:35:28.439Z,3.50
2019-05-06T14:37:56.820Z,4.47
2019-05-06T14:40:26.884Z,8.17
2019-05-06T14:42:55.317Z,4.80
2019-05-06T14:45:23.592Z,7.20
2019-05-06T14:47:52.760Z,4.40
2019-05-06T14:50:31.724Z,6.67
2019-05-06T14:52:51.208Z,6.43
2019-05-06T14:55:22.529Z,4.03
2019-05-06T14:57:53.357Z,4.43
2019-05-06T15:00:23.049Z,5.23
2019-05-06T15:02:53.297Z,4.50
2019-05-06T15:05:22.689Z,3.57
2019-05-06T15:07:52.886Z,3.70
2019-05-06T15:10:24.041Z,4.20
2019-05-06T15:12:53.443Z,4.50
2019-05-06T15:15:22.889Z,3.87
2019-05-06T15:17:53.292Z,3.83
2019-05-06T15:20:22.599Z,3.50
2019-05-06T15:22:52.964Z,3.40
2019-05-06T15:25:22.188Z,3.67
2019-05-06T15:27:52.985Z,3.20
2019-05-06T15:30:25.345Z,3.90
2019-05-06T15:32:53.737Z,3.30
2019-05-06T15:35:23.669Z,3.20
2019-05-06T15:37:53.660Z,4.60
2019-05-06T15:40:32.071Z,3.77
2019-05-06T15:42:54.155Z,4.00
2019-05-06T15:45:22.629Z,4.07
2019-05-06T15:47:52.312Z,10.80
2019-05-06T15:50:23.023Z,4.67
2019-05-06T15:52:50.857Z,4.40
2019-05-06T15:55:19.423Z,5.00
2019-05-06T15:57:54.802Z,5.10
2019-05-06T16:00:23.649Z,4.60
2019-05-06T16:02:53.065Z,6.70
2019-05-06T16:05:26.151Z,4.23
2019-05-06T16:07:52.840Z,5.17
2019-05-06T16:10:22.559Z,4.60
2019-05-06T16:12:53.377Z,5.13
2019-05-06T16:15:24.445Z,4.73
2019-05-06T16:17:53.041Z,5.03
2019-05-06T16:20:22.184Z,4.03
2019-05-06T16:22:52.546Z,4.47
2019-05-06T16:25:20.894Z,4.77
2019-05-06T16:27:54.291Z,4.90
2019-05-06T16:30:24.122Z,4.63
2019-05-06T16:32:52.677Z,5.20
2019-05-06T16:35:22.929Z,5.70
2019-05-06T16:37:51.214Z,5.87
2019-05-06T16:40:19.776Z,5.17
2019-05-06T16:42:49.173Z,4.97
2019-05-06T16:45:18.879Z,5.00
2019-05-06T16:47:47.350Z,5.90
2019-05-06T16:50:19.179Z,5.10
2019-05-06T16:52:47.460Z,4.77
2019-05-06T16:55:18.321Z,4.80
2019-05-06T16:58:05.760Z,4.83
2019-05-06T17:00:35.864Z,5.27
2019-05-06T17:03:15.503Z,4.97
2019-05-06T17:06:01.898Z,4.37
2019-05-06T17:08:32.884Z,5.47
2019-05-06T17:11:04.357Z,6.53
2019-05-06T17:13:30.406Z,5.17
2019-05-06T17:15:58.720Z,4.93
2019-05-06T17:18:27.153Z,6.00
2019-05-06T17:20:55.540Z,7.20
2019-05-06T17:23:23.834Z,5.50
2019-05-06T17:25:52.256Z,5.00
2019-05-06T17:28:37.104Z,4.43
2019-05-06T17:31:07.100Z,5.10
2019-05-06T17:33:37.080Z,4.23
2019-05-06T17:36:07.560Z,5.00
2019-05-06T17:38:37.693Z,5.63
2019-05-06T17:41:06.044Z,4.30
2019-05-06T17:43:40.489Z,5.60
2019-05-06T17:46:06.728Z,5.33
2019-05-06T17:48:42.559Z,5.30
2019-05-06T17:51:13.602Z,9.67
2019-05-06T17:53:55.577Z,5.83
2019-05-06T17:56:23.873Z,5.87
2019-05-06T17:58:53.188Z,6.63
2019-05-06T18:01:26.204Z,5.93
2019-05-06T18:03:54.522Z,6.70
2019-05-06T18:06:23.047Z,5.63
2019-05-06T18:08:52.808Z,5.60
2019-05-06T18:11:22.415Z,7.13
2019-05-06T18:13:52.108Z,8.47
2019-05-06T18:16:22.294Z,5.40
2019-05-06T18:18:52.320Z,5.30
2019-05-06T18:21:22.784Z,5.10
2019-05-06T18:23:52.282Z,4.60
2019-05-06T18:26:22.799Z,4.67
2019-05-06T18:28:52.655Z,5.43
2019-05-06T18:31:22.112Z,5.67
2019-05-06T18:33:52.623Z,5.67
2019-05-06T18:36:22.720Z,4.67
2019-05-06T18:38:52.568Z,5.30
2019-05-06T18:41:23.403Z,5.43
2019-05-06T18:43:53.555Z,5.90
2019-05-06T18:46:23.034Z,5.83
2019-05-06T18:48:52.451Z,6.50
2019-05-06T18:51:22.353Z,6.10
2019-05-06T18:53:52.393Z,6.93
2019-05-06T18:56:22.458Z,6.77
2019-05-06T18:58:52.928Z,6.20
2019-05-06T19:01:23.253Z,6.97
2019-05-06T19:03:53.261Z,6.80
2019-05-06T19:06:23.238Z,7.27
2019-05-06T19:08:57.028Z,6.00
2019-05-06T19:11:25.332Z,7.17
2019-05-06T19:13:53.854Z,7.13
2019-05-06T19:16:22.445Z,7.30
2019-05-06T19:18:52.253Z,6.80
2019-05-06T19:21:24.250Z,7.23
2019-05-06T19:23:51.929Z,7.10
2019-05-06T19:26:22.785Z,8.30
2019-05-06T19:28:52.679Z,7.40
2019-05-06T19:31:23.041Z,7.10
2019-05-06T19:33:52.587Z,7.57
2019-05-06T19:36:23.314Z,7.80
2019-05-06T19:38:51.243Z,7.10
2019-05-06T19:41:19.512Z,8.43
2019-05-06T19:43:47.843Z,6.70
2019-05-06T19:46:16.113Z,7.10
2019-05-06T19:48:44.411Z,7.23
2019-05-06T19:51:12.718Z,8.93
2019-05-06T19:53:42.840Z,6.90
2019-05-06T19:56:12.349Z,7.73
2019-05-06T19:58:42.737Z,8.00
2019-05-06T20:01:18.055Z,8.90
2019-05-06T20:03:54.605Z,7.63
2019-05-06T20:06:43.119Z,9.20
2019-05-06T20:09:22.080Z,8.87
2019-05-06T20:11:51.980Z,10.33
2019-05-06T20:14:22.052Z,9.20
2019-05-06T20:16:58.433Z,8.90
2019-05-06T20:19:31.022Z,9.47
2019-05-06T20:22:01.857Z,10.40
2019-05-06T20:24:29.937Z,7.80
2019-05-06T20:26:58.221Z,9.13
2019-05-06T20:29:26.616Z,10.40
2019-05-06T20:31:54.901Z,9.83
2019-05-06T20:34:23.178Z,9.97
2019-05-06T20:36:52.898Z,8.63
2019-05-06T20:39:23.181Z,9.13
2019-05-06T20:41:51.533Z,9.27
2019-05-06T20:44:19.855Z,9.10
2019-05-06T20:46:48.110Z,8.87
2019-05-06T20:49:16.419Z,9.37
2019-05-06T20:51:44.803Z,9.60
2019-05-06T20:54:13.155Z,9.13
2019-05-06T20:56:42.387Z,9.17
2019-05-06T20:59:12.114Z,9.60
2019-05-06T21:01:42.492Z,10.10
2019-05-06T21:04:12.988Z,8.80
2019-05-06T21:06:42.708Z,11.00
2019-05-06T21:09:12.537Z,9.33
2019-05-06T21:11:47.024Z,9.43
2019-05-06T21:14:15.303Z,9.63
2019-05-06T21:16:43.599Z,8.90
2019-05-06T21:19:12.583Z,8.87
2019-05-06T21:21:43.136Z,10.07
2019-05-06T21:24:12.986Z,9.20
2019-05-06T21:26:42.529Z,8.77
2019-05-06T21:29:12.785Z,8.63
2019-05-06T21:31:44.188Z,8.43
2019-05-06T21:34:13.619Z,9.37
2019-05-06T21:36:42.402Z,8.90
2019-05-06T21:39:13.143Z,8.67
2019-05-06T21:41:42.790Z,8.80
2019-05-06T21:44:13.289Z,8.30
2019-05-06T21:46:42.881Z,9.27
2019-05-06T21:49:12.116Z,10.17
2019-05-06T21:51:42.617Z,8.27
2019-05-06T21:54:12.623Z,11.70
2019-05-06T21:56:42.482Z,9.33
2019-05-06T21:59:12.989Z,8.70
2019-05-06T22:01:43.043Z,9.10
2019-05-06T22:04:12.863Z,9.03
2019-05-06T22:06:42.903Z,10.30
2019-05-06T22:09:12.424Z,9.00
2019-05-06T22:11:42.428Z,9.17
2019-05-06T22:14:12.289Z,7.97
2019-05-06T22:16:40.856Z,10.10
2019-05-06T22:19:09.196Z,9.37
2019-05-06T22:21:42.626Z,11.47
2019-05-06T22:24:12.074Z,11.40
2019-05-06T22:26:40.486Z,12.30
2019-05-06T22:29:08.762Z,13.40
2019-05-06T22:31:37.034Z,9.60
2019-05-06T22:34:05.424Z,9.07
2019-05-06T22:36:33.718Z,11.20
2019-05-06T22:39:02.539Z,9.23
2019-05-06T22:41:32.599Z,9.83
2019-05-06T22:44:12.403Z,9.30
2019-05-06T22:46:32.947Z,9.97
2019-05-06T22:49:02.487Z,10.23
2019-05-06T22:51:32.304Z,9.10
2019-05-06T22:54:02.746Z,9.10
2019-05-06T22:56:32.501Z,8.93
2019-05-06T22:59:02.995Z,9.60
2019-05-06T23:01:54.346Z,9.90
2019-05-06T23:04:24.121Z,9.03
2019-05-06T23:06:52.408Z,9.70
2019-05-06T23:09:24.527Z,10.60
2019-05-06T23:11:50.712Z,10.03
2019-05-06T23:14:30.495Z,11.40
2019-05-06T23:16:48.984Z,9.33
2019-05-06T23:19:17.252Z,9.17
2019-05-06T23:21:45.529Z,9.27
2019-05-06T23:24:15.999Z,11.00
2019-05-06T23:26:44.286Z,12.90
2019-05-06T23:29:13.035Z,9.90
2019-05-06T23:31:42.455Z,9.73
2019-05-06T23:34:12.530Z,9.60
2019-05-06T23:36:57.217Z,10.33
2019-05-06T23:40:03.546Z,9.77
2019-05-06T23:43:08.187Z,10.20
2019-05-06T23:46:12.959Z,9.00
2019-05-06T23:49:18.673Z,9.40
2019-05-06T23:52:23.486Z,9.23
2019-05-06T23:55:28.375Z,9.27
2019-05-06T23:57:57.764Z,8.63
